createdAt,value
2023-02-02T00:00:30.407Z,999.48
2023-02-02T00:05:30.398Z,999.41
2023-02-02T00:10:30.277Z,999.40
2023-02-02T00:15:30.212Z,999.36
2023-02-02T00:20:30.124Z,999.38
2023-02-02T00:25:30.108Z,999.37
2023-02-02T00:30:30.040Z,999.33
2023-02-02T00:35:29.936Z,999.35
2023-02-02T00:40:29.860Z,999.37
2023-02-02T00:45:29.899Z,999.31
2023-02-02T00:50:29.746Z,999.37
2023-02-02T00:55:29.728Z,999.25
2023-02-02T01:00:29.635Z,999.36
2023-02-02T01:05:29.540Z,999.34
2023-02-02T01:10:29.485Z,999.27
2023-02-02T01:15:29.459Z,999.26
2023-02-02T01:20:29.333Z,999.32
2023-02-02T01:25:29.308Z,999.33
2023-02-02T01:30:29.267Z,999.34
2023-02-02T01:35:29.215Z,999.24
2023-02-02T01:40:29.079Z,999.20
2023-02-02T01:45:29.028Z,999.14
2023-02-02T01:50:28.942Z,999.20
2023-02-02T01:55:28.867Z,999.16
2023-02-02T02:00:28.816Z,999.04
2023-02-02T02:05:28.741Z,999.12
2023-02-02T02:10:28.676Z,999.10
2023-02-02T02:15:28.617Z,999.09
2023-02-02T02:20:28.617Z,998.90
2023-02-02T02:25:28.490Z,999.11
2023-02-02T02:30:28.418Z,998.91
2023-02-02T02:35:28.399Z,999.03
2023-02-02T02:40:28.304Z,999.08
2023-02-02T02:45:28.329Z,999.10
2023-02-02T02:50:28.149Z,999.05
2023-02-02T02:55:28.104Z,998.95
2023-02-02T03:00:28.097Z,999.17
2023-02-02T03:05:28.096Z,999.05
2023-02-02T03:10:27.957Z,999.13
2023-02-02T03:15:27.840Z,999.17
2023-02-02T03:20:27.847Z,999.19
2023-02-02T03:25:27.736Z,999.29
2023-02-02T03:30:27.693Z,999.25
2023-02-02T03:35:27.543Z,999.19
2023-02-02T03:40:27.484Z,999.25
2023-02-02T03:45:27.531Z,999.38
2023-02-02T03:50:27.344Z,999.39
2023-02-02T03:55:27.299Z,999.30
2023-02-02T04:00:28.089Z,999.30
2023-02-02T04:05:27.192Z,999.24
2023-02-02T04:10:27.139Z,999.39
2023-02-02T04:15:27.312Z,999.47
2023-02-02T04:20:27.032Z,999.67
2023-02-02T04:25:27.256Z,999.70
2023-02-02T04:30:26.942Z,999.72
2023-02-02T04:35:27.042Z,999.81
2023-02-02T04:40:26.705Z,999.87
2023-02-02T04:45:26.984Z,999.89
2023-02-02T04:50:26.593Z,999.99
2023-02-02T04:55:26.730Z,1000.01
2023-02-02T05:00:26.467Z,1000.02
2023-02-02T05:05:26.718Z,1000.02
2023-02-02T05:10:26.312Z,1000.05
2023-02-02T05:15:26.563Z,999.93
2023-02-02T05:20:26.200Z,1000.13
2023-02-02T05:25:26.400Z,1000.26
2023-02-02T05:30:26.060Z,1000.51
2023-02-02T05:35:26.294Z,1000.62
2023-02-02T05:40:25.949Z,1000.52
2023-02-02T05:45:26.180Z,1000.55
2023-02-02T05:50:25.779Z,1000.66
2023-02-02T05:55:26.096Z,1000.76
2023-02-02T06:00:25.676Z,1000.93
2023-02-02T06:05:25.813Z,1000.79
2023-02-02T06:10:25.580Z,1000.86
2023-02-02T06:15:25.844Z,1001.00
2023-02-02T06:20:25.386Z,1001.09
2023-02-02T06:25:25.635Z,1001.16
2023-02-02T06:30:25.339Z,1001.13
2023-02-02T06:35:25.606Z,1001.15
2023-02-02T06:40:25.875Z,1001.30
2023-02-02T06:45:25.370Z,1001.32
2023-02-02T06:50:25.065Z,1001.40
2023-02-02T06:55:25.164Z,1001.40
2023-02-02T07:00:24.864Z,1001.56
2023-02-02T07:05:25.247Z,1001.62
2023-02-02T07:11:13.277Z,1001.58
2023-02-02T07:15:26.122Z,1001.63
2023-02-02T07:20:24.583Z,1001.65
2023-02-02T07:25:24.852Z,1001.64
2023-02-02T07:30:24.533Z,1001.81
2023-02-02T07:35:24.697Z,1001.99
2023-02-02T07:40:24.402Z,1001.96
2023-02-02T07:45:26.693Z,1001.95
2023-02-02T07:50:24.227Z,1001.95
2023-02-02T07:55:24.127Z,1002.02
2023-02-02T08:00:24.059Z,1002.12
2023-02-02T08:05:24.352Z,1002.11
2023-02-02T08:10:23.926Z,1002.08
2023-02-02T08:15:23.993Z,1002.27
2023-02-02T08:20:23.812Z,1002.29
2023-02-02T08:25:23.959Z,1002.35
2023-02-02T08:30:23.755Z,1002.52
2023-02-02T08:35:23.786Z,1002.43
2023-02-02T08:40:23.619Z,1002.54
2023-02-02T08:46:03.094Z,1002.58
2023-02-02T08:50:24.446Z,1002.58
2023-02-02T08:55:23.687Z,1002.64
2023-02-02T09:00:23.312Z,1002.80
2023-02-02T09:05:23.627Z,1002.90
2023-02-02T09:10:23.161Z,1002.86
2023-02-02T09:15:23.411Z,1002.83
2023-02-02T09:20:23.012Z,1002.91
2023-02-02T09:25:23.376Z,1002.98
2023-02-02T09:30:22.844Z,1003.09
2023-02-02T09:35:23.241Z,1003.20
2023-02-02T09:40:22.734Z,1003.28
2023-02-02T09:45:23.124Z,1003.34
2023-02-02T09:50:22.623Z,1003.42
2023-02-02T09:55:22.861Z,1003.52
2023-02-02T10:00:22.501Z,1003.45
2023-02-02T10:05:22.523Z,1003.52
2023-02-02T10:10:22.440Z,1003.62
2023-02-02T10:15:22.731Z,1003.64
2023-02-02T10:20:22.215Z,1003.53
2023-02-02T10:25:22.161Z,1003.56
2023-02-02T10:30:22.135Z,1003.60
2023-02-02T10:35:22.000Z,1003.60
2023-02-02T10:40:21.957Z,1003.64
2023-02-02T10:45:21.898Z,1003.63
2023-02-02T10:50:21.827Z,1003.75
2023-02-02T10:55:21.803Z,1003.65
2023-02-02T11:00:23.305Z,1003.71
2023-02-02T11:05:21.626Z,1003.81
2023-02-02T11:10:21.656Z,1003.72
2023-02-02T11:15:21.459Z,1003.76
2023-02-02T11:20:21.413Z,1003.76
2023-02-02T11:25:21.340Z,1003.80
2023-02-02T11:30:21.283Z,1003.94
2023-02-02T11:35:21.271Z,1003.89
2023-02-02T11:40:21.141Z,1003.93
2023-02-02T11:45:21.077Z,1004.01
2023-02-02T11:50:21.006Z,1003.97
2023-02-02T11:55:20.948Z,1003.96
2023-02-02T12:00:20.907Z,1004.08
2023-02-02T12:05:20.832Z,1004.08
2023-02-02T12:10:20.783Z,1004.07
2023-02-02T12:15:20.755Z,1004.07
2023-02-02T12:20:20.694Z,1004.07
2023-02-02T12:25:20.628Z,1003.99
2023-02-02T12:30:20.540Z,1004.11
2023-02-02T12:35:20.490Z,1004.02
2023-02-02T12:40:20.446Z,1004.14
2023-02-02T12:45:20.290Z,1004.09
2023-02-02T12:50:20.529Z,1004.28
2023-02-02T12:55:20.205Z,1004.30
2023-02-02T13:00:20.148Z,1004.36
2023-02-02T13:05:20.060Z,1004.40
2023-02-02T13:10:19.994Z,1004.51
2023-02-02T13:15:20.644Z,1004.37
2023-02-02T13:20:19.909Z,1004.48
2023-02-02T13:25:19.845Z,1004.59
2023-02-02T13:30:19.705Z,1004.59
2023-02-02T13:35:19.655Z,1004.57
2023-02-02T13:40:19.619Z,1004.71
2023-02-02T13:45:19.524Z,1004.80
2023-02-02T13:50:19.481Z,1004.97
2023-02-02T13:55:19.380Z,1005.08
2023-02-02T14:00:19.318Z,1005.04
2023-02-02T14:05:19.248Z,1005.18
2023-02-02T14:10:19.227Z,1005.37
2023-02-02T14:15:19.116Z,1005.42
2023-02-02T14:20:19.048Z,1005.46
2023-02-02T14:25:19.038Z,1005.54
2023-02-02T14:30:18.929Z,1005.56
2023-02-02T14:35:18.855Z,1005.59
2023-02-02T14:40:18.776Z,1005.63
2023-02-02T14:45:18.780Z,1005.68
2023-02-02T14:50:18.654Z,1005.82
2023-02-02T14:55:18.606Z,1005.89
2023-02-02T15:00:18.525Z,1006.02
2023-02-02T15:05:18.525Z,1006.09
2023-02-02T15:10:18.406Z,1006.20
2023-02-02T15:15:18.315Z,1006.18
2023-02-02T15:20:18.291Z,1006.30
2023-02-02T15:25:18.202Z,1006.29
2023-02-02T15:30:18.172Z,1006.38
2023-02-02T15:35:18.050Z,1006.47
2023-02-02T15:40:17.968Z,1006.67
2023-02-02T15:45:17.912Z,1006.76
2023-02-02T15:50:17.866Z,1006.81
2023-02-02T15:55:17.811Z,1006.98
2023-02-02T16:00:17.707Z,1007.28
2023-02-02T16:05:17.697Z,1007.44
2023-02-02T16:10:17.645Z,1007.63
2023-02-02T16:15:17.521Z,1007.90
2023-02-02T16:20:17.442Z,1008.00
2023-02-02T16:25:17.429Z,1008.14
2023-02-02T16:30:17.330Z,1008.17
2023-02-02T16:35:17.284Z,1008.47
2023-02-02T16:40:17.290Z,1008.59
2023-02-02T16:45:17.139Z,1008.51
2023-02-02T16:50:17.054Z,1008.57
2023-02-02T16:55:17.031Z,1008.58
2023-02-02T17:00:16.920Z,1008.63
2023-02-02T17:05:16.873Z,1008.68
2023-02-02T17:10:16.784Z,1008.78
2023-02-02T17:15:16.727Z,1009.02
2023-02-02T17:20:16.715Z,1009.10
2023-02-02T17:25:16.671Z,1009.17
2023-02-02T17:30:16.557Z,1009.31
2023-02-02T17:35:16.475Z,1009.40
2023-02-02T17:40:16.427Z,1009.61
2023-02-02T17:45:16.340Z,1009.72
2023-02-02T17:50:16.307Z,1009.79
2023-02-02T17:55:16.202Z,1009.68
2023-02-02T18:00:16.146Z,1009.74
2023-02-02T18:05:16.093Z,1009.88
2023-02-02T18:10:16.003Z,1009.86
2023-02-02T18:15:15.950Z,1009.97
2023-02-02T18:20:15.856Z,1009.96
2023-02-02T18:25:15.822Z,1009.98
2023-02-02T18:30:15.751Z,1010.09
2023-02-02T18:35:15.723Z,1010.17
2023-02-02T18:40:15.603Z,1010.15
2023-02-02T18:45:15.538Z,1010.17
2023-02-02T18:50:15.494Z,1010.17
2023-02-02T18:55:15.445Z,1010.14
2023-02-02T19:00:15.402Z,1010.23
2023-02-02T19:05:15.303Z,1010.17
2023-02-02T19:10:15.462Z,1010.36
2023-02-02T19:15:15.245Z,1010.33
2023-02-02T19:20:15.066Z,1010.32
2023-02-02T19:25:15.345Z,1010.41
2023-02-02T19:30:14.975Z,1010.42
2023-02-02T19:35:14.924Z,1010.42
2023-02-02T19:40:14.918Z,1010.46
2023-02-02T19:45:14.785Z,1010.44
2023-02-02T19:50:14.691Z,1010.46
2023-02-02T19:55:14.657Z,1010.41
2023-02-02T20:00:14.552Z,1010.54
2023-02-02T20:05:14.563Z,1010.55
2023-02-02T20:10:14.475Z,1010.55
2023-02-02T20:15:14.371Z,1010.58
2023-02-02T20:20:14.343Z,1010.65
2023-02-02T20:25:14.295Z,1010.55
2023-02-02T20:30:14.322Z,1010.58
2023-02-02T20:35:14.132Z,1010.55
2023-02-02T20:40:14.091Z,1010.69
2023-02-02T20:45:14.045Z,1010.66
2023-02-02T20:50:13.950Z,1010.71
2023-02-02T20:55:13.855Z,1010.73
2023-02-02T21:00:13.810Z,1010.77
2023-02-02T21:05:13.784Z,1010.75
2023-02-02T21:10:13.651Z,1010.68
2023-02-02T21:15:13.579Z,1010.66
2023-02-02T21:20:13.532Z,1010.63
2023-02-02T21:25:13.468Z,1010.65
2023-02-02T21:30:13.390Z,1010.62
2023-02-02T21:35:14.331Z,1010.67
2023-02-02T21:40:13.320Z,1010.66
2023-02-02T21:45:13.223Z,1010.66
2023-02-02T21:50:13.119Z,1010.51
2023-02-02T21:55:13.169Z,1010.56
2023-02-02T22:00:13.043Z,1010.54
2023-02-02T22:05:12.968Z,1010.51
2023-02-02T22:10:12.906Z,1010.67
2023-02-02T22:15:12.842Z,1010.59
2023-02-02T22:20:12.759Z,1010.67
2023-02-02T22:25:12.691Z,1010.67
2023-02-02T22:30:12.710Z,1010.57
2023-02-02T22:35:12.640Z,1010.54
2023-02-02T22:40:12.505Z,1010.53
2023-02-02T22:45:12.496Z,1010.62
2023-02-02T22:50:12.445Z,1010.48
2023-02-02T22:55:12.334Z,1010.62
2023-02-02T23:00:12.268Z,1010.52
2023-02-02T23:05:12.212Z,1010.29
2023-02-02T23:10:12.140Z,1010.31
2023-02-02T23:15:12.222Z,1010.32
2023-02-02T23:20:12.056Z,1010.16
2023-02-02T23:25:11.947Z,1010.11
2023-02-02T23:30:11.883Z,1010.16
2023-02-02T23:35:11.825Z,1010.24
2023-02-02T23:40:11.743Z,1010.28
2023-02-02T23:45:11.667Z,1010.31
2023-02-02T23:50:11.810Z,1010.15
2023-02-02T23:55:11.546Z,1010.13
